Terminal Aerodrome Forecast
Issued by NWS

Home | Current Version | Previous Version | Text Only | Print | Product List | Glossary On
Versions: 1 2 3 4 5 6 7 8 9 10 11 12 13 14 15
985
FTUS42 KTAE 221730
TAFDHN
TAF
KDHN 221730Z 2218/2318 17008KT P6SM VCTS BKN020CB OVC040
      TEMPO 2219/2223 4SM TSRA SCT009 BKN015CB
     FM222300 18007KT P6SM VCSH BKN025 OVC040
     FM230000 17005KT P6SM -SHRA SCT006 OVC020
     FM230800 VRB04KT P6SM BKN006=

USA.gov is the U.S. government's official web portal to all federal, state and local government web resources and services.